Terminal Aerodrome Forecast
Issued by NWS

Home | Current Version | Previous Version | Text Only | Print | Product List | Glossary On
Versions: 1 2 3 4 5 6 7 8 9 10 11 12 13 14 15 16 17 18 19 20 21 22 23 24 25 26 27 28 29 30 31
000
FTUS41 KALY 271300 AAA
TAFPSF
TAF AMD
KPSF 271324Z 2713/2812 33010G15KT 1 1/2SM -SN BR OVC015
      TEMPO 2713/2717 1/2SM SN FZFG VV008
     FM272000 34015G28KT 5SM -SN BR OVC025
     FM280000 32012G22KT P6SM OVC045
     FM280600 31010KT P6SM OVC050=

USA.gov is the U.S. government's official web portal to all federal, state and local government web resources and services.